Time;durP1;ratioP1;P1;durP2;ratioP2;P2;SDS_P1;SDS_P2;PMS_P1;PMS_P2;Temp;Humidity;BMP_temperature;BMP_pressure;BME280_temperature;BME280_humidity;BME280_pressure;Samples;Min_cycle;Max_cycle;Signal;HPM_P1;HPM_P2
2023/10/17 00:01:52;;;;;;;9.40;4.97;;;;;;;-148.15;100.00;61821.78;4992527;28;20034;-94
2023/10/17 00:06:47;;;;;;;13.45;5.18;;;;;;;-148.15;100.00;61821.78;4991457;28;20041;-94
2023/10/17 00:09:24;;;;;;;9.02;4.90;;;;;;;-148.15;100.00;61821.78;4991538;28;20034;-93
2023/10/17 00:14:23;;;;;;;10.82;5.30;;;;;;;-148.15;100.00;61821.78;4980657;28;20041;-94
2023/10/17 00:16:54;;;;;;;12.10;4.67;;;;;;;-148.15;100.00;61821.78;4989923;28;20026;-93
2023/10/17 00:19:31;;;;;;;8.53;4.53;;;;;;;-148.15;100.00;61821.78;5007563;28;20289;-94
2023/10/17 00:21:59;;;;;;;8.40;4.88;;;;;;;-148.15;100.00;61821.78;4979923;28;20046;-94
2023/10/17 00:24:24;;;;;;;9.18;4.90;;;;;;;-148.15;100.00;61821.78;4972094;28;20034;-93
2023/10/17 00:26:50;;;;;;;11.93;5.00;;;;;;;-148.15;100.00;61821.78;4972728;28;20451;-94
2023/10/17 00:29:15;;;;;;;8.35;4.65;;;;;;;-148.15;100.00;61821.78;4987813;28;20030;-94
2023/10/17 00:31:41;;;;;;;9.10;5.03;;;;;;;-148.15;100.00;61821.78;4979004;28;20113;-94
2023/10/17 00:34:13;;;;;;;8.50;5.03;;;;;;;-148.15;100.00;61821.78;4991244;28;20143;-94
2023/10/17 00:36:48;;;;;;;13.30;6.13;;;;;;;-148.15;100.00;61821.78;4991639;28;20034;-94
2023/10/17 00:39:31;;;;;;;9.18;5.32;;;;;;;-148.15;100.00;61821.78;4993023;28;20054;-93
2023/10/17 00:47:51;;;;;;;14.48;6.30;;;;;;;-148.15;100.00;61821.78;5015932;28;20052;-94
2023/10/17 00:50:19;;;;;;;12.90;5.90;;;;;;;-148.15;100.00;61821.78;5002816;28;20056;-94
2023/10/17 00:52:45;;;;;;;11.57;6.50;;;;;;;-148.15;100.00;61821.78;5012913;28;20034;-94
2023/10/17 00:55:11;;;;;;;11.53;6.13;;;;;;;-148.15;100.00;61821.78;4976884;28;20363;-93
2023/10/17 00:57:37;;;;;;;14.43;6.50;;;;;;;-148.15;100.00;61821.78;4978482;28;20042;-94
2023/10/17 01:02:47;;;;;;;12.05;6.13;;;;;;;-148.15;100.00;61821.78;4994869;28;20453;-94
2023/10/17 01:05:12;;;;;;;11.07;6.40;;;;;;;-148.15;100.00;61821.78;4994332;28;20026;-93
2023/10/17 01:07:40;;;;;;;10.77;6.20;;;;;;;-148.15;100.00;61821.78;4994440;28;20026;-93
2023/10/17 01:10:16;;;;;;;12.48;6.00;;;;;;;-148.15;100.00;61821.78;4995253;28;20018;-94
2023/10/17 01:12:52;;;;;;;12.68;5.93;;;;;;;-148.15;100.00;61821.78;4990847;28;20069;-93
2023/10/17 01:15:20;;;;;;;9.73;6.10;;;;;;;-148.15;100.00;61821.78;4977744;28;20047;-93
2023/10/17 01:17:45;;;;;;;11.83;5.77;;;;;;;-148.15;100.00;61821.78;4986745;28;20113;-93
2023/10/17 01:20:15;;;;;;;12.53;5.67;;;;;;;-148.15;100.00;61821.78;4994453;28;20439;-95
2023/10/17 01:22:42;;;;;;;9.63;6.07;;;;;;;-148.15;100.00;61821.78;4976855;28;20034;-93
2023/10/17 01:25:19;;;;;;;10.30;6.37;;;;;;;-148.15;100.00;61821.78;4992661;28;20478;-94
2023/10/17 01:27:44;;;;;;;12.27;5.90;;;;;;;-148.15;100.00;61821.78;4993986;28;20937;-93
2023/10/17 01:30:10;;;;;;;9.63;5.43;;;;;;;-148.15;100.00;61821.78;4993155;28;20117;-93
2023/10/17 01:32:36;;;;;;;10.80;5.68;;;;;;;-148.15;100.00;61821.78;4995109;28;20133;-94
2023/10/17 01:35:02;;;;;;;8.40;5.30;;;;;;;-148.15;100.00;61821.78;5013454;28;20023;-93
2023/10/17 01:37:27;;;;;;;12.85;6.05;;;;;;;-148.15;100.00;61821.78;4996020;28;20442;-93
2023/10/17 01:39:53;;;;;;;13.33;6.00;;;;;;;-148.15;100.00;61821.78;4983198;28;20068;-93
2023/10/17 01:42:20;;;;;;;13.35;5.53;;;;;;;-148.15;100.00;61821.78;5014749;28;20315;-93
2023/10/17 01:44:45;;;;;;;12.73;6.20;;;;;;;-148.15;100.00;61821.78;4981073;28;20444;-93
2023/10/17 01:47:10;;;;;;;14.67;5.70;;;;;;;-148.15;100.00;61821.78;4992229;28;20388;-93
2023/10/17 01:49:36;;;;;;;8.57;5.40;;;;;;;-148.15;100.00;61821.78;4992853;28;20113;-93
2023/10/17 01:52:02;;;;;;;10.23;5.47;;;;;;;-148.15;100.00;61821.78;4993363;28;20032;-92
2023/10/17 01:54:29;;;;;;;12.95;5.82;;;;;;;-148.15;100.00;61821.78;4985046;28;20378;-94
2023/10/17 01:57:04;;;;;;;12.95;6.28;;;;;;;-148.15;100.00;61821.78;4985541;28;20030;-93
2023/10/17 01:59:29;;;;;;;14.48;5.82;;;;;;;-148.15;100.00;61821.78;4993298;28;20049;-93
2023/10/17 02:01:59;;;;;;;9.67;5.97;;;;;;;-148.15;100.00;61821.78;4986390;28;20663;-94
2023/10/17 02:04:25;;;;;;;8.82;6.00;;;;;;;-148.15;100.00;61821.78;4974286;28;20162;-93
2023/10/17 02:06:50;;;;;;;9.70;6.00;;;;;;;-148.15;100.00;61821.78;4979986;28;20430;-93
2023/10/17 02:11:56;;;;;;;9.80;5.27;;;;;;;-148.15;100.00;61821.78;4974973;28;20453;-93
2023/10/17 02:14:22;;;;;;;8.98;5.55;;;;;;;-148.15;100.00;61821.78;4984449;28;20397;-94
2023/10/17 02:16:48;;;;;;;11.10;6.32;;;;;;;-148.15;100.00;61821.78;4993502;28;20045;-93
2023/10/17 02:19:14;;;;;;;9.57;5.90;;;;;;;-148.15;100.00;61821.78;4994188;28;20660;-93
2023/10/17 02:21:40;;;;;;;11.65;6.05;;;;;;;-148.15;100.00;61821.78;4992632;28;20034;-93
2023/10/17 02:24:08;;;;;;;12.47;6.20;;;;;;;-148.15;100.00;61821.78;4992562;28;20042;-93
2023/10/17 02:26:42;;;;;;;13.23;5.78;;;;;;;-148.15;100.00;61821.78;4991851;28;20064;-93
2023/10/17 02:29:11;;;;;;;11.80;6.30;;;;;;;-148.15;100.00;61821.78;4974140;28;20030;-93
2023/10/17 02:31:37;;;;;;;10.38;6.43;;;;;;;-148.15;100.00;61821.78;4990783;28;20034;-93
2023/10/17 02:34:03;;;;;;;11.47;6.23;;;;;;;-148.15;100.00;61821.78;4992905;28;20469;-93
2023/10/17 02:36:29;;;;;;;12.30;6.80;;;;;;;-148.15;100.00;61821.78;4992982;28;20380;-96
2023/10/17 02:38:54;;;;;;;10.13;6.47;;;;;;;-148.15;100.00;61821.78;5003331;28;20028;-94
2023/10/17 02:41:19;;;;;;;12.77;6.27;;;;;;;-148.15;100.00;61821.78;4975908;28;20035;-94
2023/10/17 02:43:46;;;;;;;10.83;7.00;;;;;;;-148.15;100.00;61821.78;4980580;28;20037;-94
2023/10/17 02:46:14;;;;;;;11.15;6.20;;;;;;;-148.15;100.00;61821.78;4994218;28;20026;-95
2023/10/17 02:48:39;;;;;;;8.50;6.60;;;;;;;-148.15;100.00;61821.78;4995161;28;20026;-94
2023/10/17 02:54:05;;;;;;;13.33;6.90;;;;;;;-148.15;100.00;61821.78;4983737;28;20509;-93
2023/10/17 02:56:36;;;;;;;14.18;7.60;;;;;;;-148.15;100.00;61821.78;4980217;28;20023;-92
2023/10/17 02:59:04;;;;;;;14.25;7.28;;;;;;;-148.15;100.00;61821.78;4988723;28;20018;-92
2023/10/17 03:01:36;;;;;;;11.02;7.00;;;;;;;-148.15;100.00;61821.78;4987538;28;20080;-92
2023/10/17 03:04:08;;;;;;;12.52;7.40;;;;;;;-148.15;100.00;61821.78;5005812;28;20057;-92
2023/10/17 03:06:40;;;;;;;12.98;7.60;;;;;;;-148.15;100.00;61821.78;4999349;28;20041;-92
2023/10/17 03:09:16;;;;;;;12.13;7.13;;;;;;;-148.15;100.00;61821.78;4991852;28;20030;-93
2023/10/17 03:11:50;;;;;;;14.00;7.60;;;;;;;-148.15;100.00;61821.78;4991304;28;20122;-93
2023/10/17 03:14:22;;;;;;;8.40;6.47;;;;;;;-148.15;100.00;61821.78;4992009;28;20034;-92
2023/10/17 03:16:53;;;;;;;12.17;7.57;;;;;;;-148.15;100.00;61821.78;4979927;28;20868;-91
2023/10/17 03:19:25;;;;;;;11.38;7.30;;;;;;;-148.15;100.00;61821.78;4992300;28;20066;-91
2023/10/17 03:21:53;;;;;;;15.68;8.07;;;;;;;-148.15;100.00;61821.78;4991572;28;20049;-92
2023/10/17 03:24:24;;;;;;;14.18;7.80;;;;;;;-148.15;100.00;61821.78;4991386;28;20780;-92
2023/10/17 03:27:03;;;;;;;20.83;8.65;;;;;;;-148.15;100.00;61821.78;4991322;28;20475;-92
2023/10/17 03:29:28;;;;;;;17.45;9.00;;;;;;;-148.15;100.00;61821.78;4990690;28;20038;-92
2023/10/17 03:31:58;;;;;;;13.83;8.40;;;;;;;-148.15;100.00;61821.78;4986585;28;20137;-91
2023/10/17 03:34:34;;;;;;;17.25;8.57;;;;;;;-148.15;100.00;61821.78;4987477;28;20030;-92
2023/10/17 03:37:26;;;;;;;16.77;9.50;;;;;;;-148.15;100.00;61821.78;4990624;28;20490;-92
2023/10/17 03:39:53;;;;;;;17.33;9.30;;;;;;;-148.15;100.00;61821.78;4985947;28;20991;-92
2023/10/17 03:45:13;;;;;;;17.60;9.30;;;;;;;-148.15;100.00;61821.78;4990494;28;20309;-91
2023/10/17 03:47:44;;;;;;;16.33;9.18;;;;;;;-148.15;100.00;61821.78;4990717;28;20052;-90
2023/10/17 03:50:09;;;;;;;21.25;8.88;;;;;;;-148.15;100.00;61821.78;4985277;28;20053;-91
2023/10/17 03:52:38;;;;;;;19.53;9.13;;;;;;;-148.15;100.00;61821.78;4990843;28;20481;-91
2023/10/17 03:55:10;;;;;;;19.02;8.93;;;;;;;-148.15;100.00;61821.78;4992755;28;20177;-91
2023/10/17 03:57:52;;;;;;;22.48;9.93;;;;;;;-148.15;100.00;61821.78;4988157;28;20037;-92
2023/10/17 04:00:28;;;;;;;18.25;10.20;;;;;;;-148.15;100.00;61821.78;4988724;28;20030;-93
2023/10/17 04:02:54;;;;;;;20.42;10.00;;;;;;;-148.15;100.00;61821.78;4989401;28;20370;-93
2023/10/17 04:05:23;;;;;;;18.17;9.88;;;;;;;-148.15;100.00;61821.78;4989893;28;20213;-94
2023/10/17 04:07:52;;;;;;;17.35;8.93;;;;;;;-148.15;100.00;61821.78;4973556;28;20031;-91
2023/10/17 04:10:21;;;;;;;20.27;10.00;;;;;;;-148.15;100.00;61821.78;4975290;28;20026;-91
2023/10/17 04:13:10;;;;;;;18.23;9.75;;;;;;;-148.15;100.00;61821.78;4990611;28;20034;-92
2023/10/17 04:15:35;;;;;;;19.05;10.00;;;;;;;-148.15;100.00;61821.78;4989593;28;20057;-91
2023/10/17 04:23:21;;;;;;;19.03;10.07;;;;;;;-148.15;100.00;61821.78;5119437;23;20297;-91
2023/10/17 04:25:50;;;;;;;17.75;10.25;;;;;;;-148.15;100.00;61821.78;4990120;28;20026;-91
2023/10/17 04:28:16;;;;;;;18.90;9.95;;;;;;;-148.15;100.00;61821.78;4979502;28;20027;-91
2023/10/17 04:30:48;;;;;;;20.70;10.55;;;;;;;-148.15;100.00;61821.78;4993072;28;20014;-90
2023/10/17 04:33:13;;;;;;;23.35;10.40;;;;;;;-148.15;100.00;61821.78;4990647;28;20030;-91
2023/10/17 04:35:48;;;;;;;19.00;9.53;;;;;;;-148.15;100.00;61821.78;4990748;28;20399;-91
2023/10/17 04:38:19;;;;;;;22.00;10.20;;;;;;;-148.15;100.00;61821.78;4989991;28;20022;-92
2023/10/17 04:40:53;;;;;;;17.90;10.73;;;;;;;-148.15;100.00;61821.78;4989663;28;20030;-92
2023/10/17 04:46:08;;;;;;;15.77;10.25;;;;;;;-148.15;100.00;61821.78;4992348;28;20061;-92
2023/10/17 04:48:35;;;;;;;19.52;10.73;;;;;;;-148.15;100.00;61821.78;4999316;28;20034;-92
2023/10/17 04:51:38;;;;;;;19.92;10.82;;;;;;;-148.15;100.00;61821.78;4991722;28;20462;-93
2023/10/17 04:54:04;;;;;;;19.13;10.83;;;;;;;-148.15;100.00;61821.78;4988284;28;20050;-92
2023/10/17 04:56:53;;;;;;;19.00;11.23;;;;;;;-148.15;100.00;61821.78;4990950;28;20286;-93
2023/10/17 04:59:28;;;;;;;20.67;11.20;;;;;;;-148.15;100.00;61821.78;4989019;28;20125;-92
2023/10/17 05:02:27;;;;;;;20.48;10.77;;;;;;;-148.15;100.00;61821.78;4991028;28;20405;-93
2023/10/17 05:07:28;;;;;;;18.60;11.02;;;;;;;-148.15;100.00;61821.78;5008520;28;20045;-92
2023/10/17 06:18:17;;;;;;;31.40;14.95;;;;;;;-148.15;100.00;61821.78;4992679;28;20449;-86
2023/10/17 06:34:15;;;;;;;30.83;14.27;;;;;;;-148.15;100.00;61821.78;4992740;28;20572;-88
2023/10/17 06:36:42;;;;;;;27.40;14.50;;;;;;;-148.15;100.00;61821.78;4990794;28;20030;-85
2023/10/17 06:39:17;;;;;;;25.63;15.18;;;;;;;-148.15;100.00;61821.78;4992285;28;20026;-87
2023/10/17 06:41:47;;;;;;;25.73;14.32;;;;;;;-148.15;100.00;61821.78;4991678;28;20022;-87
2023/10/17 06:44:33;;;;;;;23.45;13.43;;;;;;;-148.15;100.00;61821.78;5001880;28;20030;-86
2023/10/17 06:47:07;;;;;;;24.73;12.93;;;;;;;-148.15;100.00;61821.78;4984920;28;20042;-87
2023/10/17 06:54:41;;;;;;;23.45;13.65;;;;;;;-148.15;100.00;61821.78;4990869;28;20044;-87
2023/10/17 06:57:24;;;;;;;24.23;12.80;;;;;;;-148.15;100.00;61821.78;4990928;28;20085;-86
2023/10/17 07:00:05;;;;;;;25.87;13.43;;;;;;;-148.15;100.00;61821.78;5004330;28;20014;-85
2023/10/17 07:02:41;;;;;;;23.90;12.60;;;;;;;-148.15;100.00;61821.78;4996791;28;20376;-88
2023/10/17 07:05:09;;;;;;;23.05;13.13;;;;;;;-148.15;100.00;61821.78;4988949;28;20045;-88
2023/10/17 07:07:45;;;;;;;23.00;11.02;;;;;;;-148.15;100.00;61821.78;4995406;28;20038;-88
2023/10/17 07:10:18;;;;;;;23.23;13.23;;;;;;;-148.15;100.00;61821.78;4991386;28;20110;-87
2023/10/17 07:12:50;;;;;;;20.63;11.80;;;;;;;-148.15;100.00;61821.78;5008701;28;20025;-87
2023/10/17 07:15:18;;;;;;;22.02;12.68;;;;;;;-148.15;100.00;61821.78;5010922;28;20026;-87
2023/10/17 07:18:39;;;;;;;22.70;12.40;;;;;;;-148.15;100.00;61821.78;5003271;28;20037;-87
2023/10/17 07:23:20;;;;;;;19.20;11.87;;;;;;;-148.15;100.00;61821.78;4989520;28;20300;-87
2023/10/17 07:25:49;;;;;;;24.38;12.43;;;;;;;-148.15;100.00;61821.78;5001806;28;20026;-87
2023/10/17 07:28:15;;;;;;;19.60;10.70;;;;;;;-148.15;100.00;61821.78;5012492;28;20493;-87
2023/10/17 07:30:49;;;;;;;21.27;12.37;;;;;;;-148.15;100.00;61821.78;4992037;28;20035;-87
2023/10/17 07:33:17;;;;;;;20.00;10.90;;;;;;;-148.15;100.00;61821.78;5007841;28;20297;-88
2023/10/17 07:35:42;;;;;;;18.15;10.52;;;;;;;-148.15;100.00;61821.78;4993041;28;20040;-87
2023/10/17 07:38:07;;;;;;;19.38;11.32;;;;;;;-148.15;100.00;61821.78;4995005;28;20026;-86
2023/10/17 07:40:34;;;;;;;16.67;10.47;;;;;;;-148.15;100.00;61821.78;4997541;28;20034;-87
2023/10/17 07:43:04;;;;;;;24.13;10.98;;;;;;;-148.15;100.00;61821.78;4990394;28;20042;-86
2023/10/17 07:45:48;;;;;;;16.30;10.97;;;;;;;-148.15;100.00;61821.78;4994809;28;20018;-87
2023/10/17 07:48:21;;;;;;;17.20;11.07;;;;;;;-148.15;100.00;61821.78;4990969;28;20757;-88
2023/10/17 07:50:50;;;;;;;18.10;11.30;;;;;;;-148.15;100.00;61821.78;4988589;28;20062;-88
2023/10/17 07:58:09;;;;;;;20.20;10.13;;;;;;;-148.15;100.00;61821.78;4982623;28;20038;-86
2023/10/17 08:00:36;;;;;;;17.75;10.43;;;;;;;-148.15;100.00;61821.78;4989780;28;20113;-87
2023/10/17 08:03:19;;;;;;;20.08;11.40;;;;;;;-148.15;100.00;61821.78;4990070;28;20495;-90
2023/10/17 08:06:05;;;;;;;17.63;10.43;;;;;;;-148.15;100.00;61821.78;4982984;28;20034;-90
2023/10/17 08:08:40;;;;;;;20.43;10.90;;;;;;;-148.15;100.00;61821.78;5003554;28;20795;-90
2023/10/17 08:11:08;;;;;;;18.45;10.75;;;;;;;-148.15;100.00;61821.78;4986455;28;20052;-89
2023/10/17 08:13:33;;;;;;;20.83;11.20;;;;;;;-148.15;100.00;61821.78;5001537;28;20045;-90
2023/10/17 08:16:11;;;;;;;18.50;10.65;;;;;;;-148.15;100.00;61821.78;4990599;28;20030;-89
2023/10/17 08:18:42;;;;;;;19.43;10.97;;;;;;;-148.15;100.00;61821.78;4987084;28;20022;-88
2023/10/17 08:23:52;;;;;;;21.42;10.70;;;;;;;-148.15;100.00;61821.78;4990616;28;20101;-88
2023/10/17 08:26:17;;;;;;;16.70;10.80;;;;;;;-148.15;100.00;61821.78;4988590;28;20034;-86
2023/10/17 08:31:22;;;;;;;17.70;10.82;;;;;;;-148.15;100.00;61821.78;4994159;28;20057;-88
2023/10/17 08:34:03;;;;;;;20.33;10.57;;;;;;;-148.15;100.00;61821.78;4991854;28;20023;-89
2023/10/17 08:36:53;;;;;;;16.83;8.77;;;;;;;-148.15;100.00;61821.78;4988479;28;20026;-86
2023/10/17 08:42:14;;;;;;;14.25;9.30;;;;;;;-148.15;100.00;61821.78;4989038;28;20068;-87
2023/10/17 08:44:42;;;;;;;11.25;7.53;;;;;;;-148.15;100.00;61821.78;4971574;28;20035;-87
2023/10/17 08:47:10;;;;;;;14.48;8.85;;;;;;;-148.15;100.00;61821.78;4979373;28;20390;-87
2023/10/17 08:49:36;;;;;;;16.42;10.18;;;;;;;-148.15;100.00;61821.78;4991086;28;20033;-88
2023/10/17 08:52:03;;;;;;;14.07;8.43;;;;;;;-148.15;100.00;61821.78;4988754;28;20034;-87
2023/10/17 08:54:29;;;;;;;16.45;9.77;;;;;;;-148.15;100.00;61821.78;4990621;28;20136;-86
2023/10/17 08:56:54;;;;;;;13.73;9.07;;;;;;;-148.15;100.00;61821.78;4986498;28;20031;-85
2023/10/17 08:59:35;;;;;;;13.02;8.88;;;;;;;-148.15;100.00;61821.78;4989909;28;20033;-85
2023/10/17 09:02:14;;;;;;;15.68;8.15;;;;;;;-148.15;100.00;61821.78;4985876;28;20026;-85
2023/10/17 09:04:42;;;;;;;17.02;8.15;;;;;;;-148.15;100.00;61821.78;4990076;28;20030;-86
2023/10/17 09:07:08;;;;;;;14.00;8.32;;;;;;;-148.15;100.00;61821.78;4988744;28;20058;-85
2023/10/17 09:09:34;;;;;;;17.05;8.35;;;;;;;-148.15;100.00;61821.78;4987776;28;20497;-84
2023/10/17 09:12:01;;;;;;;13.47;8.27;;;;;;;-148.15;100.00;61821.78;4995904;28;20031;-84
2023/10/17 09:14:29;;;;;;;12.18;8.57;;;;;;;-148.15;100.00;61821.78;4987866;28;20072;-85
2023/10/17 09:17:11;;;;;;;9.75;6.90;;;;;;;-148.15;100.00;61821.78;4996026;28;20414;-87
2023/10/17 09:19:46;;;;;;;12.35;7.72;;;;;;;-148.15;100.00;61821.78;4975091;28;20387;-83
2023/10/17 09:22:14;;;;;;;12.85;7.15;;;;;;;-148.15;100.00;61821.78;4994559;28;20053;-86
2023/10/17 09:24:40;;;;;;;9.63;7.20;;;;;;;-148.15;100.00;61821.78;4990518;28;20071;-87
2023/10/17 09:27:10;;;;;;;13.43;6.68;;;;;;;-148.15;100.00;61821.78;4991709;28;20406;-87
2023/10/17 09:29:42;;;;;;;10.35;5.65;;;;;;;-148.15;100.00;61821.78;4994216;28;20022;-87
2023/10/17 09:32:08;;;;;;;10.90;6.03;;;;;;;-148.15;100.00;61821.78;4993357;28;20026;-87
2023/10/17 09:34:34;;;;;;;7.95;5.00;;;;;;;-148.15;100.00;61821.78;4993835;28;20469;-87
2023/10/17 09:37:04;;;;;;;10.23;5.82;;;;;;;-148.15;100.00;61821.78;4993630;28;20029;-86
2023/10/17 09:39:33;;;;;;;8.98;5.90;;;;;;;-148.15;100.00;61821.78;4991525;28;20105;-86
2023/10/17 09:41:58;;;;;;;8.07;5.85;;;;;;;-148.15;100.00;61821.78;4993909;28;20030;-87
2023/10/17 09:44:24;;;;;;;11.60;6.67;;;;;;;-148.15;100.00;61821.78;4994287;28;20052;-87
2023/10/17 09:46:55;;;;;;;9.63;6.07;;;;;;;-148.15;100.00;61821.78;4993593;28;20029;-87
2023/10/17 09:49:29;;;;;;;7.05;5.35;;;;;;;-148.15;100.00;61821.78;4993918;28;20386;-88
2023/10/17 09:51:55;;;;;;;11.20;6.00;;;;;;;-148.15;100.00;61821.78;4995291;28;20122;-87
2023/10/17 09:54:21;;;;;;;8.60;5.07;;;;;;;-148.15;100.00;61821.78;4998511;28;20084;-88
2023/10/17 09:56:49;;;;;;;7.75;4.68;;;;;;;-148.15;100.00;61821.78;4998198;28;20114;-87
2023/10/17 09:59:24;;;;;;;6.17;4.00;;;;;;;-148.15;100.00;61821.78;4997958;28;20509;-87
2023/10/17 10:01:50;;;;;;;7.10;4.55;;;;;;;-148.15;100.00;61821.78;4998428;28;20031;-88
2023/10/17 10:04:19;;;;;;;6.50;4.40;;;;;;;-148.15;100.00;61821.78;4994545;28;20027;-87
2023/10/17 10:06:45;;;;;;;7.07;4.32;;;;;;;-148.15;100.00;61821.78;4992782;28;20070;-87
2023/10/17 10:09:17;;;;;;;7.83;4.13;;;;;;;-148.15;100.00;61821.78;4993716;28;20416;-87
2023/10/17 10:11:48;;;;;;;6.43;4.43;;;;;;;-148.15;100.00;61821.78;4992408;28;20316;-87
2023/10/17 10:14:15;;;;;;;5.75;3.92;;;;;;;-148.15;100.00;61821.78;4992998;28;20401;-87
2023/10/17 10:16:49;;;;;;;5.93;3.58;;;;;;;-148.15;100.00;61821.78;4993070;28;20035;-87
2023/10/17 10:19:14;;;;;;;6.90;4.22;;;;;;;-148.15;100.00;61821.78;4991221;28;20158;-88
2023/10/17 10:21:55;;;;;;;5.23;3.87;;;;;;;-148.15;100.00;61821.78;4992067;28;20061;-88
2023/10/17 10:24:31;;;;;;;7.03;3.88;;;;;;;-148.15;100.00;61821.78;4992165;28;20034;-88
2023/10/17 10:27:14;;;;;;;7.30;4.15;;;;;;;-148.15;100.00;61821.78;4992412;28;20027;-87
2023/10/17 10:29:40;;;;;;;6.82;4.13;;;;;;;-148.15;100.00;61821.78;4993084;28;20039;-88
2023/10/17 10:32:33;;;;;;;7.97;4.25;;;;;;;-148.15;100.00;61821.78;4993300;28;20022;-88
2023/10/17 10:34:59;;;;;;;5.72;3.70;;;;;;;-148.15;100.00;61821.78;4990536;28;20033;-88
2023/10/17 10:37:25;;;;;;;5.10;3.60;;;;;;;-148.15;100.00;61821.78;4993314;28;20096;-88
2023/10/17 10:40:11;;;;;;;7.05;3.67;;;;;;;-148.15;100.00;61821.78;4992332;28;20554;-89
2023/10/17 10:42:50;;;;;;;5.18;3.60;;;;;;;-148.15;100.00;61821.78;4991663;28;20026;-88
2023/10/17 10:45:31;;;;;;;9.05;4.00;;;;;;;-148.15;100.00;61821.78;4992210;28;20027;-89
2023/10/17 10:47:59;;;;;;;8.88;3.60;;;;;;;-148.15;100.00;61821.78;4991695;28;20030;-89
2023/10/17 10:50:29;;;;;;;4.88;3.08;;;;;;;-148.15;100.00;61821.78;4992846;28;20117;-89
2023/10/17 10:52:56;;;;;;;5.60;3.42;;;;;;;-148.15;100.00;61821.78;4992999;28;20026;-89
2023/10/17 10:55:23;;;;;;;4.33;3.20;;;;;;;-148.15;100.00;61821.78;4992506;28;20031;-89
2023/10/17 10:57:50;;;;;;;5.27;3.43;;;;;;;-148.15;100.00;61821.78;4991449;28;20761;-88
2023/10/17 11:00:17;;;;;;;5.38;3.60;;;;;;;-148.15;100.00;61821.78;4991678;28;20490;-90
2023/10/17 11:02:43;;;;;;;8.90;3.63;;;;;;;-148.15;100.00;61821.78;4990383;28;20475;-88
2023/10/17 11:05:13;;;;;;;4.97;2.65;;;;;;;-148.15;100.00;61821.78;4992361;28;20129;-88
2023/10/17 11:07:39;;;;;;;5.68;3.42;;;;;;;-148.15;100.00;61821.78;4992203;28;20466;-89
2023/10/17 11:10:10;;;;;;;5.07;3.40;;;;;;;-148.15;100.00;61821.78;4991931;28;20033;-88
2023/10/17 11:12:36;;;;;;;4.10;2.80;;;;;;;-148.15;100.00;61821.78;4992903;28;20037;-89
2023/10/17 11:15:26;;;;;;;5.68;3.25;;;;;;;-148.15;100.00;61821.78;4999129;28;20138;-89
2023/10/17 11:18:03;;;;;;;6.93;3.20;;;;;;;-148.15;100.00;61821.78;4998115;28;20046;-90
2023/10/17 11:20:28;;;;;;;3.75;3.00;;;;;;;-148.15;100.00;61821.78;4993911;28;20022;-89
2023/10/17 11:22:55;;;;;;;6.70;3.40;;;;;;;-148.15;100.00;61821.78;5004209;28;20026;-89
2023/10/17 11:25:27;;;;;;;3.00;2.70;;;;;;;-148.15;100.00;61821.78;4994144;28;20118;-89
2023/10/17 11:27:56;;;;;;;3.78;3.00;;;;;;;-148.15;100.00;61821.78;4991391;28;20624;-88
2023/10/17 11:35:34;;;;;;;5.57;2.60;;;;;;;-148.15;100.00;61821.78;5687806;22;20517;-90
2023/10/17 11:38:01;;;;;;;4.25;2.65;;;;;;;-148.15;100.00;61821.78;5011733;28;20437;-90
2023/10/17 11:40:38;;;;;;;4.30;2.67;;;;;;;-148.15;100.00;61821.78;5009717;28;20037;-90
2023/10/17 11:43:20;;;;;;;4.57;3.00;;;;;;;-148.15;100.00;61821.78;4991874;28;20030;-90
2023/10/17 11:45:46;;;;;;;3.30;2.60;;;;;;;-148.15;100.00;61821.78;4991420;28;20089;-90
2023/10/17 11:48:33;;;;;;;3.63;2.85;;;;;;;-148.15;100.00;61821.78;4992001;28;20648;-91
2023/10/17 11:51:05;;;;;;;6.27;2.60;;;;;;;-148.15;100.00;61821.78;5006972;28;20038;-89
2023/10/17 11:53:32;;;;;;;2.17;1.98;;;;;;;-148.15;100.00;61821.78;5007251;28;20081;-90
2023/10/17 11:55:58;;;;;;;4.55;2.80;;;;;;;-148.15;100.00;61821.78;5020267;28;20041;-90
2023/10/17 11:58:29;;;;;;;3.13;2.83;;;;;;;-148.15;100.00;61821.78;5017735;28;20115;-90
2023/10/17 12:00:55;;;;;;;3.97;2.88;;;;;;;-148.15;100.00;61821.78;5011530;28;20081;-91
2023/10/17 12:03:20;;;;;;;5.57;2.90;;;;;;;-148.15;100.00;61821.78;5010471;28;20088;-91
2023/10/17 12:05:47;;;;;;;3.40;2.87;;;;;;;-148.15;100.00;61821.78;5011048;28;20566;-90
2023/10/17 12:08:22;;;;;;;7.57;2.80;;;;;;;-148.15;100.00;61821.78;5013809;28;20112;-90
2023/10/17 12:10:53;;;;;;;7.22;2.88;;;;;;;-148.15;100.00;61821.78;5029705;28;20038;-92
2023/10/17 12:13:18;;;;;;;4.40;3.07;;;;;;;-148.15;100.00;61821.78;5011665;28;20037;-90
2023/10/17 12:15:45;;;;;;;4.90;2.60;;;;;;;-148.15;100.00;61821.78;5011866;28;20281;-93
2023/10/17 12:18:14;;;;;;;2.70;2.50;;;;;;;-148.15;100.00;61821.78;5012988;28;20028;-94
2023/10/17 12:20:42;;;;;;;6.03;2.70;;;;;;;-148.15;100.00;61821.78;5011161;28;20045;-92
2023/10/17 12:23:12;;;;;;;6.80;2.70;;;;;;;-148.15;100.00;61821.78;5028580;28;20033;-89
2023/10/17 12:25:37;;;;;;;2.90;2.23;;;;;;;-148.15;100.00;61821.78;5026982;28;20029;-91
2023/10/17 12:28:06;;;;;;;5.23;2.63;;;;;;;-148.15;100.00;61821.78;5014515;28;20293;-93
2023/10/17 12:30:39;;;;;;;4.07;2.40;;;;;;;-148.15;100.00;61821.78;5001160;28;20588;-91
2023/10/17 12:33:05;;;;;;;5.60;2.80;;;;;;;-148.15;100.00;61821.78;5005399;28;20101;-92
2023/10/17 12:35:31;;;;;;;5.63;2.63;;;;;;;-148.15;100.00;61821.78;5016072;28;20491;-94
2023/10/17 12:38:05;;;;;;;3.67;2.67;;;;;;;-148.15;100.00;61821.78;5046383;28;20193;-91
2023/10/17 12:40:31;;;;;;;3.83;2.40;;;;;;;-148.15;100.00;61821.78;5018335;28;20422;-93
2023/10/17 12:42:57;;;;;;;4.22;2.58;;;;;;;-148.15;100.00;61821.78;5000580;28;20030;-91
2023/10/17 12:45:24;;;;;;;5.57;2.40;;;;;;;-148.15;100.00;61821.78;5035589;28;20040;-93
2023/10/17 12:47:49;;;;;;;3.15;2.53;;;;;;;-148.15;100.00;61821.78;5014276;28;20105;-91
2023/10/17 12:50:18;;;;;;;4.10;2.50;;;;;;;-148.15;100.00;61821.78;5021696;28;20465;-93
2023/10/17 12:52:44;;;;;;;3.45;2.45;;;;;;;-148.15;100.00;61821.78;5015846;28;20033;-93
2023/10/17 12:55:11;;;;;;;4.18;2.78;;;;;;;-148.15;100.00;61821.78;5017226;28;20037;-95
2023/10/17 12:57:38;;;;;;;4.10;2.60;;;;;;;-148.15;100.00;61821.78;5018656;28;20033;-96
2023/10/17 13:00:09;;;;;;;3.30;2.63;;;;;;;-148.15;100.00;61821.78;5014561;28;20026;-95
2023/10/17 13:02:35;;;;;;;6.32;2.60;;;;;;;-148.15;100.00;61821.78;5014552;28;20354;-92
2023/10/17 13:05:01;;;;;;;5.80;2.70;;;;;;;-148.15;100.00;61821.78;5014085;28;20045;-90
2023/10/17 13:07:29;;;;;;;3.87;2.87;;;;;;;-148.15;100.00;61821.78;5025232;28;20289;-90
2023/10/17 13:09:55;;;;;;;2.45;2.15;;;;;;;-148.15;100.00;61821.78;5005957;28;20034;-89
2023/10/17 13:12:20;;;;;;;4.17;2.83;;;;;;;-148.15;100.00;61821.78;5009253;28;20033;-92
2023/10/17 13:14:46;;;;;;;3.23;2.60;;;;;;;-148.15;100.00;61821.78;5013722;28;20478;-93
2023/10/17 13:17:13;;;;;;;5.75;2.90;;;;;;;-148.15;100.00;61821.78;5008711;28;20137;-91
2023/10/17 13:19:42;;;;;;;4.68;2.97;;;;;;;-148.15;100.00;61821.78;5008365;28;20092;-91
2023/10/17 13:22:14;;;;;;;9.38;3.40;;;;;;;-148.15;100.00;61821.78;5014960;28;20038;-90
2023/10/17 13:24:40;;;;;;;4.30;3.28;;;;;;;-148.15;100.00;61821.78;5013377;28;20362;-90
2023/10/17 13:27:05;;;;;;;4.23;2.97;;;;;;;-148.15;100.00;61821.78;5016324;28;20036;-90
2023/10/17 13:29:31;;;;;;;3.70;3.10;;;;;;;-148.15;100.00;61821.78;5021684;28;20495;-91
2023/10/17 13:31:57;;;;;;;6.18;3.35;;;;;;;-148.15;100.00;61821.78;5013699;28;20517;-92
2023/10/17 13:34:27;;;;;;;4.23;2.63;;;;;;;-148.15;100.00;61821.78;5012913;28;20542;-90
2023/10/17 13:36:56;;;;;;;7.03;2.90;;;;;;;-148.15;100.00;61821.78;5020554;28;20280;-91